Main page
METAR-TAF:

METAR-TAF

Airports :

Rasht Airport

Rasht, Iran

latitude: 37-12N, longitude: 049-38E, elevation: -7 m

Current weather observation

The report was made 1 hour and 8 minutes ago, at 20:00 UTC
Calm wind
Temperature 22°C
Humidity 83%
Pressure 1013 hPa
Visibility 10 km or more
Scattered clouds at a height of 2500 ft
Broken clouds at a height of 8000 ft

METAR: OIGG 052000Z 00000KT 9999 SCT025 BKN080 22/19 Q1013

Time: 01:38 (21:08 UTC)

Forecast

The report was made 1 hour and 8 minutes ago, at 20:00 UTC
Forecast valid from 05 at 21 UTC to 06 at 06 UTC
Wind 6 kt from the South/Southwest
Visibility: 8000 m
Few clouds at a height of 1500 ft
Broken clouds at a height of 8000 ft

TAF: OIGG 052000Z 0521/0606 20006KT 8000 FEW015 BKN080

Weather observations and forecasts of more than 4000 airports (METAR and TAF reports).

The available stations are represented by yellow and red dots on the map.

Hover mouse over dot to see the name of the station.

Then click to see weather observations and forecasts.

To change the map : click on the green buttons with a black cross to zoom in, on the green button with a dash to zoom out, or on the green arrows for adjacent maps.


METAR-TAF: